createdAt,value
2018-08-17T00:01:39.824Z,20.66
2018-08-17T00:04:08.605Z,20.70
2018-08-17T00:06:37.403Z,20.69
2018-08-17T00:09:09.240Z,20.54
2018-08-17T00:11:38.068Z,20.40
2018-08-17T00:14:07.259Z,20.39
2018-08-17T00:16:36.028Z,20.31
2018-08-17T00:19:05.124Z,20.28
2018-08-17T00:21:34.312Z,20.24
2018-08-17T00:24:03.103Z,20.16
2018-08-17T00:26:33.946Z,20.13
2018-08-17T00:29:02.806Z,20.25
2018-08-17T00:31:31.561Z,20.25
2018-08-17T00:34:00.758Z,20.33
2018-08-17T00:36:29.521Z,20.36
2018-08-17T00:38:58.275Z,20.38
2018-08-17T00:41:27.045Z,20.18
2018-08-17T00:43:55.821Z,20.14
2018-08-17T00:46:24.625Z,20.26
2018-08-17T00:48:53.423Z,20.08
2018-08-17T00:51:24.031Z,20.14
2018-08-17T00:53:54.078Z,20.00
2018-08-17T00:56:22.900Z,19.89
2018-08-17T00:58:51.805Z,19.88
2018-08-17T01:01:22.974Z,19.79
2018-08-17T01:03:53.100Z,19.74
2018-08-17T01:06:24.059Z,19.71
2018-08-17T01:08:54.677Z,19.65
2018-08-17T01:11:23.561Z,19.58
2018-08-17T01:13:52.685Z,19.48
2018-08-17T01:16:21.793Z,19.42
2018-08-17T01:18:52.006Z,19.47
2018-08-17T01:21:21.075Z,19.46
2018-08-17T01:23:50.628Z,19.34
2018-08-17T01:26:19.421Z,19.35
2018-08-17T01:28:49.213Z,19.37
2018-08-17T01:31:18.244Z,19.37
2018-08-17T01:33:47.057Z,19.32
2018-08-17T01:36:15.858Z,19.24
2018-08-17T01:38:45.924Z,19.23
2018-08-17T01:41:14.712Z,19.17
2018-08-17T01:43:44.195Z,19.17
2018-08-17T01:46:12.969Z,19.14
2018-08-17T01:48:41.724Z,19.12
2018-08-17T01:51:10.473Z,19.17
2018-08-17T01:53:39.221Z,19.12
2018-08-17T01:56:07.992Z,19.12
2018-08-17T01:58:36.772Z,19.05
2018-08-17T02:01:05.550Z,18.88
2018-08-17T02:03:34.426Z,18.76
2018-08-17T02:06:03.273Z,18.77
2018-08-17T02:08:32.101Z,18.71
2018-08-17T02:11:00.880Z,18.67
2018-08-17T02:13:29.637Z,18.71
2018-08-17T02:15:58.432Z,18.64
2018-08-17T02:18:27.183Z,18.50
2018-08-17T02:20:55.936Z,18.52
2018-08-17T02:23:24.671Z,18.50
2018-08-17T02:25:53.457Z,18.49
2018-08-17T02:28:22.241Z,18.43
2018-08-17T02:30:51.033Z,18.35
2018-08-17T02:33:21.506Z,18.36
2018-08-17T02:35:51.205Z,18.30
2018-08-17T02:38:21.566Z,18.27
2018-08-17T02:40:52.022Z,18.25
2018-08-17T02:43:23.529Z,18.18
2018-08-17T02:45:54.180Z,18.18
2018-08-17T02:48:23.007Z,18.20
2018-08-17T02:50:53.409Z,18.21
2018-08-17T02:53:22.278Z,18.22
2018-08-17T02:55:52.732Z,18.30
2018-08-17T02:58:24.044Z,18.50
2018-08-17T03:00:54.256Z,18.36
2018-08-17T03:03:23.224Z,18.18
2018-08-17T03:05:53.538Z,18.27
2018-08-17T03:08:24.390Z,18.20
2018-08-17T03:10:53.176Z,18.10
2018-08-17T03:13:22.038Z,18.42
2018-08-17T03:15:50.822Z,18.28
2018-08-17T03:18:19.582Z,18.28
2018-08-17T03:20:48.353Z,18.28
2018-08-17T03:23:17.161Z,18.28
2018-08-17T03:25:46.038Z,18.19
2018-08-17T03:28:14.850Z,18.14
2018-08-17T03:30:44.449Z,18.07
2018-08-17T03:33:15.144Z,18.01
2018-08-17T03:35:45.518Z,18.06
2018-08-17T03:38:15.095Z,17.98
2018-08-17T03:40:45.558Z,17.91
2018-08-17T03:43:16.028Z,17.94
2018-08-17T03:45:45.741Z,17.82
2018-08-17T03:48:14.528Z,17.74
2018-08-17T03:50:44.642Z,17.86
2018-08-17T03:53:13.469Z,17.87
2018-08-17T03:55:43.841Z,17.98
2018-08-17T03:58:12.675Z,17.92
2018-08-17T04:00:43.108Z,17.81
2018-08-17T04:03:13.516Z,17.73
2018-08-17T04:05:43.736Z,17.73
2018-08-17T04:08:13.672Z,17.66
2018-08-17T04:10:44.030Z,17.59
2018-08-17T04:13:14.005Z,17.56
2018-08-17T04:15:44.797Z,17.66
2018-08-17T04:18:15.021Z,17.75
2018-08-17T04:20:45.329Z,17.89
2018-08-17T04:23:14.061Z,17.82
2018-08-17T04:25:44.137Z,17.82
2018-08-17T04:28:14.580Z,17.72
2018-08-17T04:30:45.232Z,17.67
2018-08-17T04:33:15.265Z,17.67
2018-08-17T04:35:44.835Z,17.64
2018-08-17T04:38:14.781Z,17.65
2018-08-17T04:40:45.161Z,17.69
2018-08-17T04:43:17.947Z,17.69
2018-08-17T04:45:46.806Z,17.74
2018-08-17T04:48:15.609Z,17.79
2018-08-17T04:50:44.738Z,17.85
2018-08-17T04:53:13.558Z,17.93
2018-08-17T04:55:42.352Z,18.09
2018-08-17T04:58:11.388Z,18.09
2018-08-17T05:00:40.224Z,18.34
2018-08-17T05:03:09.361Z,18.36
2018-08-17T05:05:38.623Z,18.33
2018-08-17T05:08:07.387Z,18.55
2018-08-17T05:10:36.152Z,18.50
2018-08-17T05:13:05.583Z,18.54
2018-08-17T05:15:35.956Z,18.49
2018-08-17T05:18:06.099Z,18.47
2018-08-17T05:20:36.158Z,18.65
2018-08-17T05:23:06.376Z,18.79
2018-08-17T05:25:35.143Z,18.84
2018-08-17T05:28:06.216Z,18.89
2018-08-17T05:30:35.592Z,19.00
2018-08-17T05:33:04.697Z,19.15
2018-08-17T05:35:33.814Z,19.23
2018-08-17T05:38:02.913Z,19.32
2018-08-17T05:40:31.891Z,19.44
2018-08-17T05:43:01.024Z,19.55
2018-08-17T05:45:29.984Z,19.71
2018-08-17T05:47:59.085Z,19.87
2018-08-17T05:50:32.264Z,19.94
2018-08-17T05:53:02.188Z,20.19
2018-08-17T05:55:31.448Z,20.19
2018-08-17T05:58:00.376Z,20.33
2018-08-17T06:00:29.289Z,20.39
2018-08-17T06:02:58.407Z,20.44
2018-08-17T06:05:27.493Z,20.62
2018-08-17T06:07:56.481Z,20.75
2018-08-17T06:10:25.639Z,20.83
2018-08-17T06:12:54.749Z,20.96
2018-08-17T06:15:23.864Z,21.17
2018-08-17T06:17:52.843Z,21.26
2018-08-17T06:20:21.863Z,21.32
2018-08-17T06:22:50.896Z,21.47
2018-08-17T06:25:20.040Z,21.68
2018-08-17T06:27:49.008Z,21.91
2018-08-17T06:30:18.233Z,22.36
2018-08-17T06:32:47.206Z,22.72
2018-08-17T06:35:16.294Z,23.11
2018-08-17T06:37:45.303Z,23.33
2018-08-17T06:40:14.501Z,23.57
2018-08-17T06:42:43.496Z,23.61
2018-08-17T06:45:13.152Z,23.77
2018-08-17T06:47:42.385Z,23.78
2018-08-17T06:50:12.066Z,23.86
2018-08-17T06:52:42.075Z,24.13
2018-08-17T06:55:12.067Z,24.42
2018-08-17T06:57:41.189Z,24.92
2018-08-17T07:00:14.503Z,25.85
2018-08-17T07:02:44.784Z,26.77
2018-08-17T07:05:14.017Z,27.48
2018-08-17T07:07:43.348Z,28.46
2018-08-17T07:10:13.528Z,29.24
2018-08-17T07:12:42.908Z,30.04
2018-08-17T07:15:12.420Z,30.65
2018-08-17T07:17:41.929Z,31.34
2018-08-17T07:20:12.566Z,31.96
2018-08-17T07:22:42.262Z,32.31
2018-08-17T07:25:11.313Z,32.90
2018-08-17T07:27:40.335Z,33.38
2018-08-17T07:30:10.425Z,32.74
2018-08-17T07:32:39.428Z,31.93
2018-08-17T07:35:09.819Z,32.79
2018-08-17T07:37:38.749Z,33.56
2018-08-17T07:40:08.089Z,34.19
2018-08-17T07:42:36.889Z,34.59
2018-08-17T07:45:06.393Z,33.92
2018-08-17T07:47:36.034Z,33.56
2018-08-17T07:50:04.853Z,34.02
2018-08-17T07:52:33.644Z,33.62
2018-08-17T07:55:02.956Z,33.90
2018-08-17T07:57:31.708Z,33.54
2018-08-17T08:00:00.504Z,33.82
2018-08-17T08:02:29.269Z,34.42
2018-08-17T08:04:58.068Z,34.18
2018-08-17T08:07:26.817Z,33.10
2018-08-17T08:09:55.582Z,31.57
2018-08-17T08:12:24.362Z,30.35
2018-08-17T08:14:53.110Z,29.97
2018-08-17T08:17:21.889Z,29.52
2018-08-17T08:20:01.826Z,29.15
2018-08-17T08:22:30.617Z,29.61
2018-08-17T08:24:59.375Z,29.59
2018-08-17T08:27:28.128Z,29.64
2018-08-17T08:29:56.983Z,30.09
2018-08-17T08:32:25.793Z,30.59
2018-08-17T08:34:54.508Z,31.04
2018-08-17T08:37:26.228Z,31.28
2018-08-17T08:39:54.991Z,31.12
2018-08-17T08:42:23.736Z,30.42
2018-08-17T08:44:52.504Z,29.62
2018-08-17T08:47:21.240Z,29.09
2018-08-17T08:49:49.993Z,28.36
2018-08-17T08:52:18.776Z,28.29
2018-08-17T08:54:47.527Z,27.96
2018-08-17T08:57:16.388Z,27.67
2018-08-17T08:59:45.120Z,27.85
2018-08-17T09:02:13.876Z,27.58
2018-08-17T09:04:42.639Z,27.59
2018-08-17T09:07:11.421Z,28.15
2018-08-17T09:09:40.168Z,28.69
2018-08-17T09:12:08.953Z,28.78
2018-08-17T09:14:37.703Z,29.11
2018-08-17T09:17:06.525Z,29.11
2018-08-17T09:19:35.308Z,29.40
2018-08-17T09:22:04.094Z,29.51
2018-08-17T09:24:32.881Z,29.15
2018-08-17T09:27:01.659Z,28.80
2018-08-17T09:29:30.460Z,29.10
2018-08-17T09:31:59.215Z,29.40
2018-08-17T09:34:27.965Z,29.31
2018-08-17T09:36:56.723Z,29.60
2018-08-17T09:39:25.566Z,29.29
2018-08-17T09:41:54.368Z,29.61
2018-08-17T09:44:23.564Z,30.02
2018-08-17T09:46:52.333Z,30.28
2018-08-17T09:49:21.162Z,30.01
2018-08-17T09:51:49.918Z,30.10
2018-08-17T09:54:18.664Z,30.21
2018-08-17T09:56:47.456Z,29.93
2018-08-17T09:59:16.203Z,30.19
2018-08-17T10:01:50.048Z,30.05
2018-08-17T10:04:24.100Z,29.63
2018-08-17T10:06:58.100Z,30.14
2018-08-17T10:09:32.036Z,30.33
2018-08-17T10:12:00.792Z,30.02
2018-08-17T10:14:29.521Z,29.78
2018-08-17T10:16:58.303Z,30.31
2018-08-17T10:19:27.052Z,30.45
2018-08-17T10:21:56.428Z,30.46
2018-08-17T10:24:25.357Z,30.88
2018-08-17T10:26:55.081Z,30.85
2018-08-17T10:29:24.060Z,30.70
2018-08-17T10:31:52.829Z,30.76
2018-08-17T10:34:21.652Z,30.78
2018-08-17T10:36:50.373Z,31.37
2018-08-17T10:39:19.155Z,31.03
2018-08-17T10:41:47.932Z,31.28
2018-08-17T10:44:16.677Z,31.83
2018-08-17T10:46:45.416Z,32.20
2018-08-17T10:49:14.261Z,32.35
2018-08-17T10:51:42.964Z,32.22
2018-08-17T10:54:11.738Z,32.26
2018-08-17T10:56:40.475Z,32.73
2018-08-17T10:59:09.241Z,32.21
2018-08-17T11:01:43.191Z,31.51
2018-08-17T11:04:11.969Z,31.91
2018-08-17T11:06:40.796Z,31.93
2018-08-17T11:09:10.639Z,32.11
2018-08-17T11:11:41.253Z,31.93
2018-08-17T11:14:09.997Z,31.06
2018-08-17T11:16:38.760Z,30.92
2018-08-17T11:19:07.572Z,30.00
2018-08-17T11:21:36.326Z,29.53
2018-08-17T11:24:05.193Z,29.35
2018-08-17T11:26:33.928Z,29.67
2018-08-17T11:29:02.677Z,30.21
2018-08-17T11:31:31.437Z,30.96
2018-08-17T11:34:00.185Z,31.05
2018-08-17T11:36:28.904Z,30.43
2018-08-17T11:38:57.628Z,30.88
2018-08-17T11:41:26.430Z,30.87
2018-08-17T11:43:58.590Z,31.37
2018-08-17T11:46:27.338Z,31.02
2018-08-17T11:48:56.125Z,30.52
2018-08-17T11:51:24.868Z,29.80
2018-08-17T11:53:53.609Z,29.51
2018-08-17T11:56:22.369Z,29.48
2018-08-17T11:58:51.124Z,29.70
2018-08-17T12:01:24.961Z,29.13
2018-08-17T12:03:53.748Z,29.04
2018-08-17T12:06:22.528Z,29.51
2018-08-17T12:08:51.281Z,30.34
2018-08-17T12:11:20.010Z,31.18
2018-08-17T12:13:48.752Z,31.67
2018-08-17T12:16:17.504Z,32.38
2018-08-17T12:18:46.263Z,33.00
2018-08-17T12:21:15.008Z,32.76
2018-08-17T12:23:43.747Z,32.61
2018-08-17T12:26:12.505Z,32.89
2018-08-17T12:28:41.272Z,32.70
2018-08-17T12:31:10.091Z,32.75
2018-08-17T12:33:38.835Z,31.47
2018-08-17T12:36:08.697Z,31.31
2018-08-17T12:38:37.449Z,30.43
2018-08-17T12:41:06.260Z,30.92
2018-08-17T12:43:37.986Z,31.59
2018-08-17T12:46:06.952Z,31.71
2018-08-17T12:48:35.719Z,32.22
2018-08-17T12:51:05.661Z,32.49
2018-08-17T12:53:34.416Z,33.28
2018-08-17T12:56:03.228Z,33.38
2018-08-17T12:58:32.016Z,32.77
2018-08-17T13:01:00.792Z,32.68
2018-08-17T13:03:29.544Z,33.04
2018-08-17T13:05:58.284Z,33.15
2018-08-17T13:08:27.035Z,32.68
2018-08-17T13:10:58.904Z,32.21
2018-08-17T13:13:27.680Z,32.80
2018-08-17T13:16:01.735Z,32.81
2018-08-17T13:18:33.319Z,32.03
2018-08-17T13:21:02.240Z,32.33
2018-08-17T13:23:30.993Z,32.57
2018-08-17T13:25:59.745Z,32.50
2018-08-17T13:28:28.531Z,31.77
2018-08-17T13:30:57.393Z,31.42
2018-08-17T13:33:26.157Z,31.53
2018-08-17T13:35:54.953Z,32.33
2018-08-17T13:38:24.313Z,32.63
2018-08-17T13:40:53.200Z,32.35
2018-08-17T13:43:22.075Z,31.68
2018-08-17T13:45:50.989Z,31.51
2018-08-17T13:48:19.752Z,31.37
2018-08-17T13:50:48.542Z,31.36
2018-08-17T13:53:17.310Z,31.26
2018-08-17T13:55:46.060Z,31.03
2018-08-17T13:58:14.832Z,30.75
2018-08-17T14:00:43.634Z,30.55
2018-08-17T14:03:12.842Z,30.95
2018-08-17T14:05:43.176Z,30.87
2018-08-17T14:08:13.104Z,30.70
2018-08-17T14:10:41.850Z,30.75
2018-08-17T14:13:10.661Z,30.69
2018-08-17T14:15:39.524Z,30.75
2018-08-17T14:18:08.292Z,30.32
2018-08-17T14:20:37.219Z,30.29
2018-08-17T14:23:06.009Z,30.57
2018-08-17T14:25:34.956Z,30.89
2018-08-17T14:28:03.717Z,30.44
2018-08-17T14:30:32.525Z,30.23
2018-08-17T14:33:01.292Z,30.35
2018-08-17T14:35:30.028Z,30.48
2018-08-17T14:37:58.756Z,30.26
2018-08-17T14:40:27.571Z,30.43
2018-08-17T14:42:56.294Z,30.39
2018-08-17T14:45:25.092Z,30.26
2018-08-17T14:47:53.846Z,30.15
2018-08-17T14:50:22.605Z,30.36
2018-08-17T14:52:51.452Z,29.99
2018-08-17T14:55:20.188Z,30.26
2018-08-17T14:57:48.998Z,30.48
2018-08-17T15:00:17.777Z,30.64
2018-08-17T15:02:46.523Z,30.65
2018-08-17T15:05:15.997Z,30.89
2018-08-17T15:07:44.768Z,30.52
2018-08-17T15:10:14.588Z,30.43
2018-08-17T15:12:44.137Z,30.51
2018-08-17T15:15:13.490Z,30.44
2018-08-17T15:17:42.630Z,29.97
2018-08-17T15:20:12.795Z,29.78
2018-08-17T15:22:41.922Z,29.62
2018-08-17T15:25:10.707Z,29.72
2018-08-17T15:27:39.521Z,29.67
2018-08-17T15:30:10.415Z,29.65
2018-08-17T15:32:39.925Z,29.61
2018-08-17T15:35:10.164Z,29.70
2018-08-17T15:37:39.821Z,29.58
2018-08-17T15:40:11.196Z,29.62
2018-08-17T15:42:40.276Z,29.54
2018-08-17T15:45:09.723Z,29.67
2018-08-17T15:47:38.548Z,29.43
2018-08-17T15:50:17.125Z,29.46
2018-08-17T15:52:46.040Z,29.41
2018-08-17T15:55:15.128Z,29.41
2018-08-17T15:57:44.013Z,29.49
2018-08-17T16:00:17.199Z,29.67
2018-08-17T16:02:46.369Z,29.70
2018-08-17T16:05:15.185Z,29.84
2018-08-17T16:07:44.088Z,29.72
2018-08-17T16:10:14.634Z,29.76
2018-08-17T16:12:43.674Z,29.66
2018-08-17T16:15:12.527Z,29.42
2018-08-17T16:17:41.654Z,29.30
2018-08-17T16:20:12.005Z,29.34
2018-08-17T16:22:41.200Z,29.18
2018-08-17T16:25:10.881Z,29.21
2018-08-17T16:27:39.989Z,29.41
2018-08-17T16:30:10.519Z,29.31
2018-08-17T16:32:39.528Z,28.97
2018-08-17T16:35:08.473Z,28.71
2018-08-17T16:37:42.120Z,28.24
2018-08-17T16:40:10.906Z,28.19
2018-08-17T16:42:39.712Z,28.07
2018-08-17T16:45:09.284Z,27.91
2018-08-17T16:47:38.059Z,27.78
2018-08-17T16:50:08.061Z,27.74
2018-08-17T16:52:36.824Z,27.60
2018-08-17T16:55:05.857Z,27.51
2018-08-17T16:57:34.688Z,27.45
2018-08-17T17:00:03.575Z,27.47
2018-08-17T17:02:32.424Z,27.43
2018-08-17T17:05:01.290Z,27.36
2018-08-17T17:07:31.800Z,27.34
2018-08-17T17:10:01.062Z,27.22
2018-08-17T17:12:29.896Z,27.15
2018-08-17T17:15:11.392Z,27.02
2018-08-17T17:17:40.169Z,26.91
2018-08-17T17:20:09.220Z,26.95
2018-08-17T17:22:38.041Z,26.89
2018-08-17T17:25:12.220Z,26.64
2018-08-17T17:27:41.209Z,26.52
2018-08-17T17:30:09.969Z,26.35
2018-08-17T17:32:38.791Z,26.30
2018-08-17T17:35:07.953Z,26.14
2018-08-17T17:37:36.804Z,25.94
2018-08-17T17:40:06.242Z,25.77
2018-08-17T17:42:35.079Z,25.73
2018-08-17T17:45:04.225Z,25.79
2018-08-17T17:47:33.021Z,25.62
2018-08-17T17:50:02.017Z,25.49
2018-08-17T17:52:31.226Z,25.44
2018-08-17T17:55:00.148Z,25.33
2018-08-17T17:57:28.909Z,25.22
2018-08-17T17:59:58.668Z,25.19
2018-08-17T18:02:28.544Z,25.19
2018-08-17T18:04:57.460Z,25.17
2018-08-17T18:07:34.064Z,25.12
2018-08-17T18:10:03.541Z,25.02
2018-08-17T18:12:32.351Z,24.92
2018-08-17T18:15:01.105Z,24.63
2018-08-17T18:17:30.052Z,24.48
2018-08-17T18:19:58.978Z,24.43
2018-08-17T18:22:33.181Z,24.25
2018-08-17T18:25:07.324Z,24.18
2018-08-17T18:27:36.604Z,24.10
2018-08-17T18:30:06.104Z,23.99
2018-08-17T18:32:34.868Z,23.98
2018-08-17T18:35:04.034Z,23.96
2018-08-17T18:37:32.767Z,23.97
2018-08-17T18:40:01.544Z,23.89
2018-08-17T18:42:30.748Z,23.79
2018-08-17T18:45:00.105Z,23.69
2018-08-17T18:47:30.393Z,23.73
2018-08-17T18:49:59.956Z,23.66
2018-08-17T18:52:30.715Z,23.54
2018-08-17T18:55:00.724Z,23.57
2018-08-17T18:57:31.388Z,23.51
2018-08-17T19:00:02.041Z,23.44
2018-08-17T19:02:30.975Z,23.42
2018-08-17T19:05:01.412Z,23.37
2018-08-17T19:07:31.415Z,23.38
2018-08-17T19:10:00.238Z,23.34
2018-08-17T19:12:30.365Z,23.29
2018-08-17T19:15:01.415Z,23.26
2018-08-17T19:17:33.688Z,23.22
2018-08-17T19:20:03.056Z,23.22
2018-08-17T19:22:40.036Z,23.17
2018-08-17T19:25:11.873Z,23.22
2018-08-17T19:27:42.561Z,23.51
2018-08-17T19:30:24.107Z,23.69
2018-08-17T19:32:55.579Z,23.69
2018-08-17T19:35:25.751Z,23.70
2018-08-17T19:37:55.460Z,23.51
2018-08-17T19:40:24.436Z,23.42
2018-08-17T19:42:53.191Z,23.47
2018-08-17T19:45:21.977Z,23.42
2018-08-17T19:47:51.020Z,23.44
2018-08-17T19:50:19.928Z,23.52
2018-08-17T19:52:48.792Z,23.67
2018-08-17T19:55:18.057Z,23.75
2018-08-17T19:57:46.845Z,23.63
2018-08-17T20:00:15.648Z,23.47
2018-08-17T20:02:44.549Z,23.50
2018-08-17T20:05:13.516Z,23.47
2018-08-17T20:07:42.383Z,23.32
2018-08-17T20:10:12.688Z,23.25
2018-08-17T20:12:42.183Z,23.19
2018-08-17T20:15:11.899Z,23.17
2018-08-17T20:17:41.084Z,23.30
2018-08-17T20:20:11.137Z,23.12
2018-08-17T20:22:40.376Z,23.24
2018-08-17T20:25:13.716Z,23.18
2018-08-17T20:27:43.003Z,23.01
2018-08-17T20:30:16.934Z,22.88
2018-08-17T20:32:46.352Z,22.81
2018-08-17T20:35:15.388Z,22.78
2018-08-17T20:37:46.160Z,22.73
2018-08-17T20:40:15.198Z,22.63
2018-08-17T20:42:44.374Z,22.63
2018-08-17T20:45:13.329Z,22.42
2018-08-17T20:47:42.849Z,22.31
2018-08-17T20:50:14.603Z,22.28
2018-08-17T20:52:47.968Z,22.27
2018-08-17T20:55:16.736Z,22.14
2018-08-17T20:57:48.343Z,22.12
2018-08-17T21:00:17.371Z,22.18
2018-08-17T21:02:46.828Z,22.14
2018-08-17T21:05:21.988Z,22.17
2018-08-17T21:07:51.418Z,22.18
2018-08-17T21:10:20.488Z,22.17
2018-08-17T21:12:49.654Z,22.10
2018-08-17T21:15:18.858Z,22.03
2018-08-17T21:17:48.201Z,21.87
2018-08-17T21:20:16.929Z,21.86
2018-08-17T21:22:45.722Z,21.79
2018-08-17T21:25:14.529Z,21.65
2018-08-17T21:27:43.363Z,21.53
2018-08-17T21:30:12.449Z,21.55
2018-08-17T21:32:41.192Z,21.62
2018-08-17T21:35:10.112Z,21.66
2018-08-17T21:37:38.935Z,21.55
2018-08-17T21:40:16.537Z,21.62
2018-08-17T21:42:45.439Z,21.61
2018-08-17T21:45:14.200Z,21.60
2018-08-17T21:47:43.003Z,21.60
2018-08-17T21:50:14.830Z,21.67
2018-08-17T21:52:44.826Z,21.61
2018-08-17T21:55:13.932Z,21.62
2018-08-17T21:57:43.077Z,21.66
2018-08-17T22:00:20.088Z,21.59
2018-08-17T22:02:49.192Z,21.63
2018-08-17T22:05:22.201Z,21.66
2018-08-17T22:07:51.054Z,21.68
2018-08-17T22:10:19.973Z,21.66
2018-08-17T22:12:48.752Z,21.66
2018-08-17T22:15:17.584Z,21.58
2018-08-17T22:17:46.548Z,21.65
2018-08-17T22:20:15.345Z,21.68
2018-08-17T22:22:44.172Z,21.57
2018-08-17T22:25:14.829Z,21.60
2018-08-17T22:27:43.749Z,21.67
2018-08-17T22:30:23.161Z,21.45
2018-08-17T22:32:51.974Z,21.51
2018-08-17T22:35:20.819Z,21.42
2018-08-17T22:37:49.634Z,21.29
2018-08-17T22:40:18.464Z,21.26
2018-08-17T22:42:48.864Z,21.08
2018-08-17T22:45:17.675Z,21.06
2018-08-17T22:47:46.723Z,20.96
2018-08-17T22:50:15.548Z,21.01
2018-08-17T22:52:44.344Z,20.95
2018-08-17T22:55:13.140Z,21.01
2018-08-17T22:57:42.022Z,20.91
2018-08-17T23:00:22.661Z,20.97
2018-08-17T23:03:00.485Z,21.02
2018-08-17T23:05:31.380Z,21.06
2018-08-17T23:08:00.148Z,21.12
2018-08-17T23:10:29.578Z,20.95
2018-08-17T23:12:58.761Z,20.94
2018-08-17T23:15:27.628Z,20.69
2018-08-17T23:17:57.584Z,20.56
2018-08-17T23:20:31.707Z,20.53
2018-08-17T23:23:01.697Z,20.58
2018-08-17T23:25:30.911Z,20.53
2018-08-17T23:27:59.780Z,20.29
2018-08-17T23:30:28.583Z,20.33
2018-08-17T23:32:57.368Z,20.17
2018-08-17T23:35:26.224Z,20.16
2018-08-17T23:37:54.986Z,20.08
2018-08-17T23:40:23.862Z,20.00
2018-08-17T23:42:52.627Z,20.13
2018-08-17T23:45:21.384Z,20.14
2018-08-17T23:47:50.180Z,19.93
2018-08-17T23:50:18.960Z,19.94
2018-08-17T23:52:47.717Z,19.84
2018-08-17T23:55:17.702Z,19.89
2018-08-17T23:57:46.469Z,19.89
